sensor_id;sensor_type;location;lat;lon;timestamp;P1;durP1;ratioP1;P2;durP2;ratioP2
20857;SDS011;10589;53.636;10.012;2023-01-15T04:46:43;12.37;;;1.47;;
20857;SDS011;10589;53.636;10.012;2023-01-15T04:49:13;9.90;;;1.77;;
20857;SDS011;10589;53.636;10.012;2023-01-15T04:51:40;7.30;;;1.50;;
20857;SDS011;10589;53.636;10.012;2023-01-15T04:54:07;5.90;;;1.40;;
20857;SDS011;10589;53.636;10.012;2023-01-15T04:56:38;7.80;;;1.17;;
20857;SDS011;10589;53.636;10.012;2023-01-15T04:59:05;9.33;;;1.50;;
20857;SDS011;10589;53.636;10.012;2023-01-15T05:01:31;9.17;;;1.30;;
20857;SDS011;10589;53.636;10.012;2023-01-15T05:03:57;15.20;;;1.67;;
20857;SDS011;10589;53.636;10.012;2023-01-15T05:06:23;6.40;;;1.53;;
20857;SDS011;10589;53.636;10.012;2023-01-15T05:08:49;10.70;;;1.60;;
20857;SDS011;10589;53.636;10.012;2023-01-15T05:11:15;10.77;;;1.53;;
20857;SDS011;10589;53.636;10.012;2023-01-15T05:13:41;9.23;;;1.40;;
20857;SDS011;10589;53.636;10.012;2023-01-15T05:16:07;10.57;;;1.20;;
20857;SDS011;10589;53.636;10.012;2023-01-15T05:18:34;11.63;;;1.60;;
20857;SDS011;10589;53.636;10.012;2023-01-15T05:21:00;14.83;;;1.80;;
20857;SDS011;10589;53.636;10.012;2023-01-15T05:23:26;10.70;;;1.40;;
20857;SDS011;10589;53.636;10.012;2023-01-15T05:25:51;8.40;;;1.30;;
20857;SDS011;10589;53.636;10.012;2023-01-15T05:28:17;7.57;;;1.67;;
20857;SDS011;10589;53.636;10.012;2023-01-15T05:30:43;10.83;;;1.73;;
20857;SDS011;10589;53.636;10.012;2023-01-15T05:33:09;10.13;;;1.60;;
20857;SDS011;10589;53.636;10.012;2023-01-15T05:35:35;9.30;;;1.87;;
20857;SDS011;10589;53.636;10.012;2023-01-15T05:38:02;13.23;;;1.57;;
20857;SDS011;10589;53.636;10.012;2023-01-15T05:40:30;10.50;;;1.50;;
20857;SDS011;10589;53.636;10.012;2023-01-15T05:42:56;5.83;;;1.60;;
20857;SDS011;10589;53.636;10.012;2023-01-15T05:45:22;10.13;;;1.60;;
20857;SDS011;10589;53.636;10.012;2023-01-15T05:47:47;4.73;;;1.27;;
20857;SDS011;10589;53.636;10.012;2023-01-15T05:50:13;15.20;;;1.67;;
20857;SDS011;10589;53.636;10.012;2023-01-15T05:52:39;9.33;;;1.90;;
20857;SDS011;10589;53.636;10.012;2023-01-15T05:55:04;10.80;;;1.57;;
20857;SDS011;10589;53.636;10.012;2023-01-15T05:57:30;9.60;;;1.57;;
20857;SDS011;10589;53.636;10.012;2023-01-15T05:59:57;7.53;;;1.40;;
20857;SDS011;10589;53.636;10.012;2023-01-15T06:02:22;11.63;;;1.13;;
20857;SDS011;10589;53.636;10.012;2023-01-15T06:04:48;10.90;;;2.20;;
20857;SDS011;10589;53.636;10.012;2023-01-15T06:07:14;8.53;;;1.73;;
20857;SDS011;10589;53.636;10.012;2023-01-15T06:09:42;9.27;;;1.77;;
20857;SDS011;10589;53.636;10.012;2023-01-15T06:12:08;12.83;;;2.20;;
20857;SDS011;10589;53.636;10.012;2023-01-15T06:14:33;11.60;;;1.53;;
20857;SDS011;10589;53.636;10.012;2023-01-15T06:16:59;9.87;;;2.00;;
20857;SDS011;10589;53.636;10.012;2023-01-15T06:19:25;8.50;;;1.70;;
20857;SDS011;10589;53.636;10.012;2023-01-15T06:21:50;11.57;;;1.93;;
20857;SDS011;10589;53.636;10.012;2023-01-15T06:24:16;13.50;;;1.83;;
20857;SDS011;10589;53.636;10.012;2023-01-15T06:26:43;15.93;;;2.17;;
20857;SDS011;10589;53.636;10.012;2023-01-15T06:29:10;6.40;;;1.80;;
20857;SDS011;10589;53.636;10.012;2023-01-15T06:31:35;13.73;;;2.17;;
20857;SDS011;10589;53.636;10.012;2023-01-15T06:34:01;10.50;;;1.70;;
20857;SDS011;10589;53.636;10.012;2023-01-15T06:36:27;9.17;;;1.40;;
20857;SDS011;10589;53.636;10.012;2023-01-15T06:38:53;7.47;;;1.87;;
20857;SDS011;10589;53.636;10.012;2023-01-15T06:41:20;10.23;;;1.30;;
20857;SDS011;10589;53.636;10.012;2023-01-15T06:44:05;9.20;;;1.80;;
20857;SDS011;10589;53.636;10.012;2023-01-15T06:47:13;7.43;;;1.50;;
20857;SDS011;10589;53.636;10.012;2023-01-15T06:49:56;7.97;;;1.63;;
20857;SDS011;10589;53.636;10.012;2023-01-15T06:52:22;6.50;;;1.47;;
20857;SDS011;10589;53.636;10.012;2023-01-15T06:54:49;5.93;;;1.50;;
20857;SDS011;10589;53.636;10.012;2023-01-15T06:57:15;12.40;;;1.60;;
20857;SDS011;10589;53.636;10.012;2023-01-15T06:59:42;10.40;;;2.30;;
20857;SDS011;10589;53.636;10.012;2023-01-15T07:02:09;9.63;;;1.97;;
20857;SDS011;10589;53.636;10.012;2023-01-15T07:04:35;8.93;;;1.90;;
20857;SDS011;10589;53.636;10.012;2023-01-15T07:07:02;10.67;;;1.60;;
20857;SDS011;10589;53.636;10.012;2023-01-15T07:09:28;8.63;;;1.73;;
20857;SDS011;10589;53.636;10.012;2023-01-15T07:11:54;6.47;;;1.60;;
20857;SDS011;10589;53.636;10.012;2023-01-15T07:14:20;5.63;;;1.50;;
20857;SDS011;10589;53.636;10.012;2023-01-15T07:16:48;5.53;;;1.43;;
20857;SDS011;10589;53.636;10.012;2023-01-15T07:19:14;6.07;;;1.50;;
20857;SDS011;10589;53.636;10.012;2023-01-15T07:21:41;13.53;;;2.10;;
20857;SDS011;10589;53.636;10.012;2023-01-15T07:24:07;11.43;;;1.80;;
20857;SDS011;10589;53.636;10.012;2023-01-15T07:26:34;8.93;;;1.33;;
20857;SDS011;10589;53.636;10.012;2023-01-15T07:29:00;6.00;;;1.20;;
20857;SDS011;10589;53.636;10.012;2023-01-15T07:31:26;8.17;;;1.63;;
20857;SDS011;10589;53.636;10.012;2023-01-15T07:33:51;13.97;;;2.10;;
20857;SDS011;10589;53.636;10.012;2023-01-15T07:36:17;12.73;;;1.87;;
20857;SDS011;10589;53.636;10.012;2023-01-15T07:38:43;10.37;;;1.60;;
20857;SDS011;10589;53.636;10.012;2023-01-15T07:41:08;10.53;;;1.73;;
20857;SDS011;10589;53.636;10.012;2023-01-15T07:43:52;10.13;;;1.90;;
20857;SDS011;10589;53.636;10.012;2023-01-15T07:46:36;11.73;;;1.70;;
20857;SDS011;10589;53.636;10.012;2023-01-15T07:49:20;6.77;;;1.50;;
20857;SDS011;10589;53.636;10.012;2023-01-15T07:52:04;10.93;;;1.50;;
20857;SDS011;10589;53.636;10.012;2023-01-15T07:54:30;9.67;;;1.63;;
20857;SDS011;10589;53.636;10.012;2023-01-15T07:56:55;10.17;;;1.80;;
20857;SDS011;10589;53.636;10.012;2023-01-15T07:59:21;11.47;;;2.03;;
20857;SDS011;10589;53.636;10.012;2023-01-15T08:01:47;8.27;;;1.90;;
20857;SDS011;10589;53.636;10.012;2023-01-15T08:04:13;9.37;;;1.43;;
20857;SDS011;10589;53.636;10.012;2023-01-15T08:06:38;7.73;;;1.43;;
20857;SDS011;10589;53.636;10.012;2023-01-15T08:09:04;11.17;;;2.17;;
20857;SDS011;10589;53.636;10.012;2023-01-15T08:11:29;12.93;;;2.20;;
20857;SDS011;10589;53.636;10.012;2023-01-15T08:14:15;12.23;;;2.00;;
20857;SDS011;10589;53.636;10.012;2023-01-15T08:16:59;6.70;;;1.70;;
20857;SDS011;10589;53.636;10.012;2023-01-15T08:19:25;10.27;;;1.90;;
20857;SDS011;10589;53.636;10.012;2023-01-15T08:21:53;10.67;;;1.93;;
20857;SDS011;10589;53.636;10.012;2023-01-15T08:24:24;11.33;;;1.70;;
20857;SDS011;10589;53.636;10.012;2023-01-15T08:26:50;9.70;;;1.70;;
20857;SDS011;10589;53.636;10.012;2023-01-15T08:29:17;9.30;;;1.70;;
20857;SDS011;10589;53.636;10.012;2023-01-15T08:31:43;13.03;;;2.20;;
20857;SDS011;10589;53.636;10.012;2023-01-15T08:34:08;8.13;;;1.60;;
20857;SDS011;10589;53.636;10.012;2023-01-15T08:36:34;9.47;;;1.60;;
20857;SDS011;10589;53.636;10.012;2023-01-15T08:39:01;14.80;;;1.70;;
20857;SDS011;10589;53.636;10.012;2023-01-15T08:41:27;10.40;;;1.90;;
20857;SDS011;10589;53.636;10.012;2023-01-15T08:43:53;6.37;;;1.33;;
20857;SDS011;10589;53.636;10.012;2023-01-15T08:46:19;10.50;;;1.50;;
20857;SDS011;10589;53.636;10.012;2023-01-15T08:48:45;9.33;;;1.90;;
20857;SDS011;10589;53.636;10.012;2023-01-15T08:51:11;8.80;;;1.57;;
20857;SDS011;10589;53.636;10.012;2023-01-15T08:53:37;9.60;;;1.47;;
20857;SDS011;10589;53.636;10.012;2023-01-15T08:56:03;11.67;;;1.53;;
20857;SDS011;10589;53.636;10.012;2023-01-15T08:58:29;10.77;;;1.80;;
20857;SDS011;10589;53.636;10.012;2023-01-15T09:01:02;6.23;;;1.50;;
20857;SDS011;10589;53.636;10.012;2023-01-15T09:03:29;8.40;;;1.67;;
20857;SDS011;10589;53.636;10.012;2023-01-15T09:05:57;12.40;;;2.13;;
20857;SDS011;10589;53.636;10.012;2023-01-15T09:08:23;11.73;;;1.80;;
20857;SDS011;10589;53.636;10.012;2023-01-15T09:10:49;7.30;;;1.40;;
20857;SDS011;10589;53.636;10.012;2023-01-15T09:13:15;9.03;;;1.67;;
20857;SDS011;10589;53.636;10.012;2023-01-15T09:15:40;9.57;;;1.73;;
20857;SDS011;10589;53.636;10.012;2023-01-15T09:18:06;13.60;;;1.97;;
20857;SDS011;10589;53.636;10.012;2023-01-15T09:20:34;6.80;;;1.67;;
20857;SDS011;10589;53.636;10.012;2023-01-15T09:23:00;15.07;;;1.77;;
20857;SDS011;10589;53.636;10.012;2023-01-15T09:25:25;9.50;;;1.40;;
20857;SDS011;10589;53.636;10.012;2023-01-15T09:27:54;8.97;;;2.47;;
20857;SDS011;10589;53.636;10.012;2023-01-15T09:30:19;9.83;;;1.60;;
20857;SDS011;10589;53.636;10.012;2023-01-15T09:32:45;7.00;;;1.50;;
20857;SDS011;10589;53.636;10.012;2023-01-15T09:35:11;5.20;;;1.40;;
20857;SDS011;10589;53.636;10.012;2023-01-15T09:37:37;8.87;;;1.50;;
20857;SDS011;10589;53.636;10.012;2023-01-15T09:40:03;11.87;;;1.40;;
20857;SDS011;10589;53.636;10.012;2023-01-15T09:51:36;7.67;;;1.47;;
20857;SDS011;10589;53.636;10.012;2023-01-15T09:56:13;6.00;;;1.20;;
20857;SDS011;10589;53.636;10.012;2023-01-15T09:58:44;9.80;;;1.40;;
20857;SDS011;10589;53.636;10.012;2023-01-15T10:01:13;10.40;;;1.00;;
20857;SDS011;10589;53.636;10.012;2023-01-15T10:03:43;6.97;;;1.27;;
20857;SDS011;10589;53.636;10.012;2023-01-15T10:09:08;4.67;;;1.10;;
20857;SDS011;10589;53.636;10.012;2023-01-15T10:11:42;6.17;;;1.10;;
20857;SDS011;10589;53.636;10.012;2023-01-15T10:17:54;5.90;;;0.93;;
20857;SDS011;10589;53.636;10.012;2023-01-15T10:25:50;5.27;;;1.47;;
20857;SDS011;10589;53.636;10.012;2023-01-15T10:28:23;6.23;;;0.93;;
20857;SDS011;10589;53.636;10.012;2023-01-15T10:30:53;8.40;;;1.37;;
20857;SDS011;10589;53.636;10.012;2023-01-15T10:36:29;5.77;;;1.60;;
20857;SDS011;10589;53.636;10.012;2023-01-15T10:44:25;5.63;;;1.10;;
20857;SDS011;10589;53.636;10.012;2023-01-15T10:47:10;10.47;;;1.70;;
20857;SDS011;10589;53.636;10.012;2023-01-15T10:49:40;3.50;;;1.13;;
20857;SDS011;10589;53.636;10.012;2023-01-15T10:54:53;5.13;;;1.03;;
20857;SDS011;10589;53.636;10.012;2023-01-15T10:57:45;7.13;;;1.67;;
20857;SDS011;10589;53.636;10.012;2023-01-15T11:00:17;6.67;;;1.17;;
20857;SDS011;10589;53.636;10.012;2023-01-15T11:02:49;6.73;;;1.33;;
20857;SDS011;10589;53.636;10.012;2023-01-15T11:05:27;3.50;;;0.90;;
20857;SDS011;10589;53.636;10.012;2023-01-15T11:07:54;9.43;;;1.30;;
20857;SDS011;10589;53.636;10.012;2023-01-15T11:10:21;8.60;;;1.33;;
20857;SDS011;10589;53.636;10.012;2023-01-15T11:13:22;8.50;;;1.20;;
20857;SDS011;10589;53.636;10.012;2023-01-15T11:15:59;4.83;;;1.20;;
20857;SDS011;10589;53.636;10.012;2023-01-15T11:18:44;6.40;;;1.27;;
20857;SDS011;10589;53.636;10.012;2023-01-15T11:21:29;5.63;;;1.10;;
20857;SDS011;10589;53.636;10.012;2023-01-15T11:23:56;4.63;;;0.90;;
20857;SDS011;10589;53.636;10.012;2023-01-15T11:26:29;5.10;;;1.30;;
20857;SDS011;10589;53.636;10.012;2023-01-15T11:28:56;6.43;;;1.30;;
20857;SDS011;10589;53.636;10.012;2023-01-15T11:31:34;7.03;;;1.30;;
20857;SDS011;10589;53.636;10.012;2023-01-15T11:34:04;6.13;;;1.10;;
20857;SDS011;10589;53.636;10.012;2023-01-15T11:36:31;6.73;;;1.20;;
20857;SDS011;10589;53.636;10.012;2023-01-15T11:38:58;6.47;;;1.00;;
20857;SDS011;10589;53.636;10.012;2023-01-15T11:41:42;5.67;;;1.13;;
20857;SDS011;10589;53.636;10.012;2023-01-15T11:44:26;4.53;;;1.10;;
20857;SDS011;10589;53.636;10.012;2023-01-15T11:47:10;5.00;;;1.33;;
20857;SDS011;10589;53.636;10.012;2023-01-15T11:49:56;4.03;;;1.20;;
20857;SDS011;10589;53.636;10.012;2023-01-15T11:52:50;5.63;;;0.93;;
20857;SDS011;10589;53.636;10.012;2023-01-15T11:55:20;3.87;;;1.00;;
20857;SDS011;10589;53.636;10.012;2023-01-15T11:57:48;2.83;;;0.80;;
20857;SDS011;10589;53.636;10.012;2023-01-15T12:00:26;3.00;;;0.60;;
20857;SDS011;10589;53.636;10.012;2023-01-15T12:02:54;3.20;;;0.50;;
20857;SDS011;10589;53.636;10.012;2023-01-15T12:05:27;0.80;;;0.40;;
20857;SDS011;10589;53.636;10.012;2023-01-15T12:08:00;1.17;;;0.30;;
20857;SDS011;10589;53.636;10.012;2023-01-15T12:10:37;1.10;;;0.30;;
20857;SDS011;10589;53.636;10.012;2023-01-15T12:18:55;2.73;;;0.33;;
20857;SDS011;10589;53.636;10.012;2023-01-15T12:21:43;3.53;;;0.60;;
20857;SDS011;10589;53.636;10.012;2023-01-15T12:27:45;2.77;;;0.40;;
20857;SDS011;10589;53.636;10.012;2023-01-15T12:32:42;1.97;;;0.40;;
20857;SDS011;10589;53.636;10.012;2023-01-15T12:35:31;1.40;;;0.40;;
20857;SDS011;10589;53.636;10.012;2023-01-15T12:38:03;2.27;;;0.53;;
20857;SDS011;10589;53.636;10.012;2023-01-15T12:40:50;1.53;;;0.40;;
20857;SDS011;10589;53.636;10.012;2023-01-15T12:43:37;1.60;;;0.60;;
20857;SDS011;10589;53.636;10.012;2023-01-15T12:46:25;2.17;;;0.67;;
20857;SDS011;10589;53.636;10.012;2023-01-15T12:49:05;2.47;;;0.90;;
20857;SDS011;10589;53.636;10.012;2023-01-15T12:51:44;4.90;;;0.83;;
20857;SDS011;10589;53.636;10.012;2023-01-15T12:54:16;6.20;;;1.00;;
20857;SDS011;10589;53.636;10.012;2023-01-15T12:56:59;2.13;;;0.63;;
20857;SDS011;10589;53.636;10.012;2023-01-15T12:59:38;2.80;;;0.90;;
20857;SDS011;10589;53.636;10.012;2023-01-15T13:02:16;5.07;;;0.90;;
20857;SDS011;10589;53.636;10.012;2023-01-15T13:10:26;4.57;;;0.80;;
20857;SDS011;10589;53.636;10.012;2023-01-15T13:12:59;4.63;;;0.90;;
20857;SDS011;10589;53.636;10.012;2023-01-15T13:21:15;5.00;;;0.90;;
20857;SDS011;10589;53.636;10.012;2023-01-15T13:29:50;5.03;;;1.17;;
20857;SDS011;10589;53.636;10.012;2023-01-15T13:32:32;6.13;;;1.30;;
20857;SDS011;10589;53.636;10.012;2023-01-15T13:35:04;8.07;;;1.20;;
20857;SDS011;10589;53.636;10.012;2023-01-15T13:37:40;6.60;;;1.10;;
20857;SDS011;10589;53.636;10.012;2023-01-15T13:40:17;7.93;;;1.57;;
20857;SDS011;10589;53.636;10.012;2023-01-15T13:42:49;10.03;;;1.73;;
20857;SDS011;10589;53.636;10.012;2023-01-15T13:45:20;7.47;;;1.30;;
20857;SDS011;10589;53.636;10.012;2023-01-15T13:48:02;6.80;;;1.30;;
20857;SDS011;10589;53.636;10.012;2023-01-15T13:50:33;5.93;;;1.50;;
20857;SDS011;10589;53.636;10.012;2023-01-15T13:53:02;7.00;;;1.37;;
20857;SDS011;10589;53.636;10.012;2023-01-15T13:55:38;9.50;;;1.30;;
20857;SDS011;10589;53.636;10.012;2023-01-15T13:58:21;7.10;;;1.17;;
20857;SDS011;10589;53.636;10.012;2023-01-15T14:00:59;7.67;;;1.17;;
20857;SDS011;10589;53.636;10.012;2023-01-15T14:03:32;5.90;;;1.13;;
20857;SDS011;10589;53.636;10.012;2023-01-15T14:06:04;5.37;;;0.90;;
20857;SDS011;10589;53.636;10.012;2023-01-15T14:08:39;4.67;;;1.10;;
20857;SDS011;10589;53.636;10.012;2023-01-15T14:11:05;10.07;;;1.30;;
20857;SDS011;10589;53.636;10.012;2023-01-15T14:14:08;5.13;;;1.00;;
20857;SDS011;10589;53.636;10.012;2023-01-15T14:16:55;6.97;;;0.90;;
20857;SDS011;10589;53.636;10.012;2023-01-15T14:22:46;4.63;;;1.00;;
20857;SDS011;10589;53.636;10.012;2023-01-15T14:28:37;5.50;;;1.40;;
20857;SDS011;10589;53.636;10.012;2023-01-15T14:34:31;6.10;;;1.33;;
20857;SDS011;10589;53.636;10.012;2023-01-15T14:37:02;7.53;;;1.33;;
20857;SDS011;10589;53.636;10.012;2023-01-15T14:39:45;5.07;;;1.40;;
20857;SDS011;10589;53.636;10.012;2023-01-15T14:42:14;6.90;;;1.53;;
20857;SDS011;10589;53.636;10.012;2023-01-15T14:47:44;3.10;;;1.20;;
20857;SDS011;10589;53.636;10.012;2023-01-15T14:52:57;6.57;;;1.40;;
20857;SDS011;10589;53.636;10.012;2023-01-15T14:55:29;6.37;;;1.47;;
20857;SDS011;10589;53.636;10.012;2023-01-15T14:58:00;6.73;;;1.47;;
20857;SDS011;10589;53.636;10.012;2023-01-15T15:00:34;5.27;;;1.30;;
20857;SDS011;10589;53.636;10.012;2023-01-15T15:03:07;7.93;;;1.90;;
20857;SDS011;10589;53.636;10.012;2023-01-15T15:05:45;7.67;;;1.13;;
20857;SDS011;10589;53.636;10.012;2023-01-15T15:08:12;6.83;;;1.40;;
20857;SDS011;10589;53.636;10.012;2023-01-15T15:10:40;7.37;;;1.10;;
20857;SDS011;10589;53.636;10.012;2023-01-15T15:13:13;12.97;;;1.60;;
20857;SDS011;10589;53.636;10.012;2023-01-15T15:15:51;7.57;;;1.10;;
20857;SDS011;10589;53.636;10.012;2023-01-15T15:18:41;6.23;;;1.60;;
20857;SDS011;10589;53.636;10.012;2023-01-15T15:21:19;8.07;;;1.50;;
20857;SDS011;10589;53.636;10.012;2023-01-15T15:23:52;7.40;;;1.40;;
20857;SDS011;10589;53.636;10.012;2023-01-15T15:26:28;4.27;;;1.47;;
20857;SDS011;10589;53.636;10.012;2023-01-15T15:31:24;11.67;;;2.50;;
20857;SDS011;10589;53.636;10.012;2023-01-15T15:33:54;10.53;;;2.00;;
20857;SDS011;10589;53.636;10.012;2023-01-15T15:36:21;6.80;;;1.80;;
20857;SDS011;10589;53.636;10.012;2023-01-15T15:38:53;4.37;;;2.53;;
20857;SDS011;10589;53.636;10.012;2023-01-15T15:41:23;7.40;;;2.13;;
20857;SDS011;10589;53.636;10.012;2023-01-15T15:44:40;8.63;;;1.70;;
20857;SDS011;10589;53.636;10.012;2023-01-15T15:47:36;5.37;;;1.63;;
20857;SDS011;10589;53.636;10.012;2023-01-15T15:50:22;5.60;;;1.60;;
20857;SDS011;10589;53.636;10.012;2023-01-15T15:52:56;4.37;;;1.80;;
20857;SDS011;10589;53.636;10.012;2023-01-15T15:55:24;5.50;;;1.00;;
20857;SDS011;10589;53.636;10.012;2023-01-15T15:57:53;5.67;;;0.93;;
20857;SDS011;10589;53.636;10.012;2023-01-15T16:00:32;4.90;;;1.20;;
20857;SDS011;10589;53.636;10.012;2023-01-15T16:03:00;4.03;;;1.13;;
20857;SDS011;10589;53.636;10.012;2023-01-15T16:05:30;4.83;;;1.60;;
20857;SDS011;10589;53.636;10.012;2023-01-15T16:10:48;7.63;;;1.37;;
20857;SDS011;10589;53.636;10.012;2023-01-15T16:15:58;5.97;;;1.93;;
20857;SDS011;10589;53.636;10.012;2023-01-15T16:18:33;3.97;;;1.60;;
20857;SDS011;10589;53.636;10.012;2023-01-15T16:21:11;8.53;;;1.83;;
20857;SDS011;10589;53.636;10.012;2023-01-15T16:23:42;5.67;;;1.80;;
20857;SDS011;10589;53.636;10.012;2023-01-15T16:26:19;8.73;;;1.80;;
20857;SDS011;10589;53.636;10.012;2023-01-15T16:28:51;5.90;;;1.73;;
20857;SDS011;10589;53.636;10.012;2023-01-15T16:31:19;9.63;;;2.67;;
20857;SDS011;10589;53.636;10.012;2023-01-15T16:33:47;6.33;;;1.87;;
20857;SDS011;10589;53.636;10.012;2023-01-15T16:36:20;5.03;;;1.60;;
20857;SDS011;10589;53.636;10.012;2023-01-15T16:38:46;5.83;;;2.00;;
20857;SDS011;10589;53.636;10.012;2023-01-15T16:41:18;5.77;;;2.00;;
20857;SDS011;10589;53.636;10.012;2023-01-15T16:43:59;3.77;;;1.80;;
20857;SDS011;10589;53.636;10.012;2023-01-15T16:46:29;5.97;;;1.60;;
20857;SDS011;10589;53.636;10.012;2023-01-15T16:51:57;4.97;;;1.17;;
20857;SDS011;10589;53.636;10.012;2023-01-15T16:54:38;4.47;;;1.60;;
20857;SDS011;10589;53.636;10.012;2023-01-15T16:57:25;7.97;;;1.27;;
20857;SDS011;10589;53.636;10.012;2023-01-15T16:59:57;4.80;;;1.40;;
20857;SDS011;10589;53.636;10.012;2023-01-15T17:02:26;8.13;;;1.30;;
20857;SDS011;10589;53.636;10.012;2023-01-15T17:05:38;3.53;;;1.13;;
20857;SDS011;10589;53.636;10.012;2023-01-15T17:07:57;3.43;;;1.03;;
20857;SDS011;10589;53.636;10.012;2023-01-15T17:10:24;5.03;;;1.00;;
20857;SDS011;10589;53.636;10.012;2023-01-15T17:12:51;4.60;;;1.30;;
20857;SDS011;10589;53.636;10.012;2023-01-15T17:17:52;5.23;;;1.10;;
20857;SDS011;10589;53.636;10.012;2023-01-15T17:20:19;4.83;;;1.67;;
20857;SDS011;10589;53.636;10.012;2023-01-15T17:22:51;4.93;;;1.27;;
20857;SDS011;10589;53.636;10.012;2023-01-15T17:25:21;4.83;;;1.37;;
20857;SDS011;10589;53.636;10.012;2023-01-15T17:27:47;1.53;;;0.90;;
20857;SDS011;10589;53.636;10.012;2023-01-15T17:30:13;2.37;;;1.10;;
20857;SDS011;10589;53.636;10.012;2023-01-15T17:32:39;3.40;;;1.00;;
20857;SDS011;10589;53.636;10.012;2023-01-15T17:35:06;2.90;;;1.10;;
20857;SDS011;10589;53.636;10.012;2023-01-15T17:37:46;2.40;;;0.90;;
20857;SDS011;10589;53.636;10.012;2023-01-15T17:40:12;5.37;;;1.40;;
20857;SDS011;10589;53.636;10.012;2023-01-15T17:42:38;3.30;;;1.33;;
20857;SDS011;10589;53.636;10.012;2023-01-15T17:45:03;3.97;;;1.77;;
20857;SDS011;10589;53.636;10.012;2023-01-15T17:47:29;5.33;;;1.60;;
20857;SDS011;10589;53.636;10.012;2023-01-15T17:49:55;3.57;;;1.20;;
20857;SDS011;10589;53.636;10.012;2023-01-15T17:52:21;4.23;;;1.63;;
20857;SDS011;10589;53.636;10.012;2023-01-15T17:54:47;2.97;;;1.50;;
20857;SDS011;10589;53.636;10.012;2023-01-15T17:57:31;2.97;;;1.30;;
20857;SDS011;10589;53.636;10.012;2023-01-15T18:00:15;2.03;;;1.20;;
20857;SDS011;10589;53.636;10.012;2023-01-15T18:03:00;3.90;;;1.30;;
20857;SDS011;10589;53.636;10.012;2023-01-15T18:05:46;4.97;;;1.60;;
20857;SDS011;10589;53.636;10.012;2023-01-15T18:08:15;6.73;;;1.90;;
20857;SDS011;10589;53.636;10.012;2023-01-15T18:10:43;5.80;;;1.70;;
20857;SDS011;10589;53.636;10.012;2023-01-15T18:13:09;6.47;;;2.07;;
20857;SDS011;10589;53.636;10.012;2023-01-15T18:15:36;6.30;;;1.97;;
20857;SDS011;10589;53.636;10.012;2023-01-15T18:18:02;6.57;;;2.30;;
20857;SDS011;10589;53.636;10.012;2023-01-15T18:20:28;4.73;;;2.43;;
20857;SDS011;10589;53.636;10.012;2023-01-15T18:22:53;7.40;;;2.20;;
20857;SDS011;10589;53.636;10.012;2023-01-15T18:25:19;8.10;;;2.00;;
20857;SDS011;10589;53.636;10.012;2023-01-15T18:27:44;9.07;;;2.50;;
20857;SDS011;10589;53.636;10.012;2023-01-15T18:30:12;5.93;;;2.37;;
20857;SDS011;10589;53.636;10.012;2023-01-15T18:32:39;8.13;;;2.60;;
20857;SDS011;10589;53.636;10.012;2023-01-15T18:35:06;7.07;;;2.20;;
20857;SDS011;10589;53.636;10.012;2023-01-15T18:37:32;10.87;;;2.60;;
20857;SDS011;10589;53.636;10.012;2023-01-15T18:39:58;6.97;;;2.40;;
20857;SDS011;10589;53.636;10.012;2023-01-15T18:42:24;6.17;;;2.10;;
20857;SDS011;10589;53.636;10.012;2023-01-15T18:45:09;6.50;;;2.30;;
20857;SDS011;10589;53.636;10.012;2023-01-15T18:47:54;6.43;;;2.40;;
20857;SDS011;10589;53.636;10.012;2023-01-15T18:50:19;7.70;;;2.30;;
20857;SDS011;10589;53.636;10.012;2023-01-15T18:52:45;7.80;;;2.03;;
20857;SDS011;10589;53.636;10.012;2023-01-15T18:55:14;9.03;;;2.13;;
20857;SDS011;10589;53.636;10.012;2023-01-15T18:57:41;6.90;;;2.00;;
20857;SDS011;10589;53.636;10.012;2023-01-15T19:00:07;6.60;;;2.07;;
20857;SDS011;10589;53.636;10.012;2023-01-15T19:02:33;8.03;;;1.80;;
20857;SDS011;10589;53.636;10.012;2023-01-15T19:04:59;5.23;;;1.90;;
20857;SDS011;10589;53.636;10.012;2023-01-15T19:07:24;8.87;;;2.13;;
20857;SDS011;10589;53.636;10.012;2023-01-15T19:09:50;4.73;;;1.80;;
20857;SDS011;10589;53.636;10.012;2023-01-15T19:12:17;5.10;;;1.80;;
20857;SDS011;10589;53.636;10.012;2023-01-15T19:14:43;8.67;;;2.00;;
20857;SDS011;10589;53.636;10.012;2023-01-15T19:17:28;5.50;;;1.40;;
20857;SDS011;10589;53.636;10.012;2023-01-15T19:20:14;6.17;;;1.70;;
20857;SDS011;10589;53.636;10.012;2023-01-15T19:22:42;3.90;;;1.70;;
20857;SDS011;10589;53.636;10.012;2023-01-15T19:25:37;6.53;;;2.00;;
20857;SDS011;10589;53.636;10.012;2023-01-15T19:28:03;6.23;;;1.83;;
20857;SDS011;10589;53.636;10.012;2023-01-15T19:30:29;5.13;;;1.63;;
20857;SDS011;10589;53.636;10.012;2023-01-15T19:32:56;5.97;;;1.90;;
20857;SDS011;10589;53.636;10.012;2023-01-15T19:35:22;6.07;;;1.87;;
20857;SDS011;10589;53.636;10.012;2023-01-15T19:37:49;5.47;;;1.57;;
20857;SDS011;10589;53.636;10.012;2023-01-15T19:40:17;7.53;;;1.93;;
20857;SDS011;10589;53.636;10.012;2023-01-15T19:42:42;5.83;;;1.90;;
20857;SDS011;10589;53.636;10.012;2023-01-15T19:45:27;6.10;;;1.83;;
20857;SDS011;10589;53.636;10.012;2023-01-15T19:48:12;5.33;;;2.17;;
20857;SDS011;10589;53.636;10.012;2023-01-15T19:50:59;10.33;;;2.13;;
20857;SDS011;10589;53.636;10.012;2023-01-15T19:53:25;6.37;;;1.87;;
20857;SDS011;10589;53.636;10.012;2023-01-15T19:55:50;3.90;;;2.10;;
20857;SDS011;10589;53.636;10.012;2023-01-15T19:58:16;5.53;;;1.73;;
20857;SDS011;10589;53.636;10.012;2023-01-15T20:00:42;6.30;;;1.80;;
20857;SDS011;10589;53.636;10.012;2023-01-15T20:03:12;5.73;;;2.10;;
20857;SDS011;10589;53.636;10.012;2023-01-15T20:05:38;9.93;;;2.30;;
20857;SDS011;10589;53.636;10.012;2023-01-15T20:08:05;4.73;;;2.10;;
20857;SDS011;10589;53.636;10.012;2023-01-15T20:10:33;6.50;;;2.40;;
20857;SDS011;10589;53.636;10.012;2023-01-15T20:13:01;7.90;;;2.47;;
20857;SDS011;10589;53.636;10.012;2023-01-15T20:15:45;8.23;;;2.50;;
20857;SDS011;10589;53.636;10.012;2023-01-15T20:18:11;6.53;;;2.23;;
20857;SDS011;10589;53.636;10.012;2023-01-15T20:20:37;5.70;;;2.30;;
20857;SDS011;10589;53.636;10.012;2023-01-15T20:23:05;4.37;;;2.47;;
20857;SDS011;10589;53.636;10.012;2023-01-15T20:25:31;4.43;;;1.93;;
20857;SDS011;10589;53.636;10.012;2023-01-15T20:27:57;5.57;;;2.37;;
20857;SDS011;10589;53.636;10.012;2023-01-15T20:30:24;4.33;;;2.37;;
20857;SDS011;10589;53.636;10.012;2023-01-15T20:32:52;6.90;;;2.50;;
20857;SDS011;10589;53.636;10.012;2023-01-15T20:35:23;6.63;;;2.33;;
20857;SDS011;10589;53.636;10.012;2023-01-15T20:37:51;5.40;;;1.97;;
20857;SDS011;10589;53.636;10.012;2023-01-15T20:40:18;5.77;;;2.37;;
20857;SDS011;10589;53.636;10.012;2023-01-15T20:42:54;9.10;;;2.70;;
20857;SDS011;10589;53.636;10.012;2023-01-15T20:45:38;5.07;;;2.73;;
20857;SDS011;10589;53.636;10.012;2023-01-15T20:48:05;6.07;;;2.33;;
20857;SDS011;10589;53.636;10.012;2023-01-15T20:50:41;5.63;;;2.20;;
20857;SDS011;10589;53.636;10.012;2023-01-15T20:53:24;5.57;;;2.07;;
20857;SDS011;10589;53.636;10.012;2023-01-15T20:55:58;9.40;;;2.20;;
20857;SDS011;10589;53.636;10.012;2023-01-15T20:58:24;7.20;;;2.20;;
20857;SDS011;10589;53.636;10.012;2023-01-15T21:00:51;7.07;;;2.47;;
20857;SDS011;10589;53.636;10.012;2023-01-15T21:03:17;6.57;;;2.40;;
20857;SDS011;10589;53.636;10.012;2023-01-15T21:05:45;5.33;;;2.23;;
20857;SDS011;10589;53.636;10.012;2023-01-15T21:08:11;5.80;;;2.20;;
20857;SDS011;10589;53.636;10.012;2023-01-15T21:10:37;5.03;;;2.03;;
20857;SDS011;10589;53.636;10.012;2023-01-15T21:13:03;2.37;;;1.93;;
20857;SDS011;10589;53.636;10.012;2023-01-15T21:15:29;6.70;;;2.10;;